Whale Cove Airport
CYXN : now visible

Airfield :











YOU CAN JOIN US ON...

 
LOGIN :

Register | Disclaimer

   EN    FR    IT 

 









Legend :    VFR   Marginal VFR   IFR   Intensive IFR   Very Intensive IFR
Visi :
Ceiling :
>= 8 km
>= 3000ft
5 to 8 km
1000 to 3000 ft
1500m to 5 km
500 to 1000 ft
800 to 1500m
200 to 500 ft
< 800m
< 200 ft
Symbols :   Thunderstorms  Fog  Heavy snow  Heavy precipitations  Wind > 20 kt






- Airport Elevation : 40 ft
- IATA code : YXN


CYXN - Whale Cove

CURRENT METAR :
  • 061600Z 28004KT 10SM FEW008 FEW130 SCT150 M31/M34 A2978 RMK ST1AC1AS2 ST TR SLP088

EXPIRED METARs :
  • 061500Z 26005KT 10SM FEW008 SCT180 M31/M34 A2980 RMK ST1AS3 SLP094
  • 061406Z 23004KT 10SM FEW180 M30/M33 A2980 RMK AS2 SNW CVR/MUCH LOOSE SLP096

TAF N/A



MET'MAP, your aeronautical weather chart ! - Copyright ORBIFLY December 2007 - Disclaimer

ORBIFLY MET'MAP TEAM :

Programming & Development : Alexandra Zaïnal
Concept & original design : Baudouin d'Aumeries
Assistance for programming : Marc-Olivier Méhu
Technical & hardware support : Manuel Goepfert

Contact : metmap@orbifly.com




SOURCES & CREDITS :

   NOAA       Earth
Advisory